createdAt,value
2022-10-14T00:01:10.073Z,14.42
2022-10-14T00:03:38.141Z,14.07
2022-10-14T00:06:07.265Z,14.41
2022-10-14T00:08:33.835Z,14.40
2022-10-14T00:11:24.531Z,14.37
2022-10-14T00:13:57.035Z,14.37
2022-10-14T00:16:27.855Z,14.36
2022-10-14T00:18:54.478Z,14.36
2022-10-14T00:21:21.935Z,14.35
2022-10-14T00:23:48.624Z,14.35
2022-10-14T00:26:18.476Z,14.34
2022-10-14T00:28:45.106Z,14.31
2022-10-14T00:31:11.982Z,14.02
2022-10-14T00:33:38.583Z,13.97
2022-10-14T00:36:06.975Z,14.35
2022-10-14T00:38:35.280Z,14.32
2022-10-14T00:41:02.374Z,14.37
2022-10-14T00:43:30.348Z,14.37
2022-10-14T00:45:56.896Z,14.37
2022-10-14T00:48:26.329Z,14.10
2022-10-14T00:50:56.825Z,14.37
2022-10-14T00:53:23.423Z,14.33
2022-10-14T00:55:51.170Z,14.37
2022-10-14T00:58:17.841Z,14.36
2022-10-14T01:00:44.417Z,14.36
2022-10-14T01:03:19.400Z,14.35
2022-10-14T01:05:54.520Z,14.25
2022-10-14T01:08:43.954Z,13.99
2022-10-14T01:11:19.546Z,14.27
2022-10-14T01:14:02.866Z,14.22
2022-10-14T01:16:46.863Z,14.19
2022-10-14T01:19:32.345Z,13.85
2022-10-14T01:22:13.320Z,14.18
2022-10-14T01:25:14.282Z,14.16
2022-10-14T01:28:05.055Z,13.82
2022-10-14T01:30:43.361Z,14.15
2022-10-14T01:33:16.535Z,14.12
2022-10-14T01:36:07.070Z,14.11
2022-10-14T01:38:37.556Z,13.77
2022-10-14T01:41:22.145Z,14.09
2022-10-14T01:43:51.915Z,13.74
2022-10-14T01:46:21.459Z,14.05
2022-10-14T01:48:55.166Z,14.07
2022-10-14T01:51:30.026Z,14.06
2022-10-14T01:54:01.649Z,14.06
2022-10-14T01:56:30.644Z,14.04
2022-10-14T01:59:00.559Z,14.05
2022-10-14T02:01:27.585Z,13.73
2022-10-14T02:03:54.936Z,14.01
2022-10-14T02:06:33.700Z,14.00
2022-10-14T02:09:02.682Z,13.99
2022-10-14T02:11:37.892Z,13.67
2022-10-14T02:14:28.676Z,14.00
2022-10-14T02:17:02.106Z,13.98
2022-10-14T02:19:39.564Z,13.63
2022-10-14T02:22:12.559Z,13.99
2022-10-14T02:24:54.092Z,13.98
2022-10-14T02:27:24.331Z,13.96
2022-10-14T02:29:53.277Z,13.98
2022-10-14T02:32:22.428Z,13.96
2022-10-14T02:34:53.530Z,13.96
2022-10-14T02:37:22.319Z,13.96
2022-10-14T02:39:59.924Z,13.96
2022-10-14T02:42:27.823Z,13.86
2022-10-14T02:44:59.047Z,13.98
2022-10-14T02:47:26.558Z,13.99
2022-10-14T02:49:53.961Z,13.99
2022-10-14T02:52:21.366Z,14.00
2022-10-14T02:54:48.520Z,14.01
2022-10-14T02:57:16.185Z,14.00
2022-10-14T02:59:42.777Z,14.01
2022-10-14T03:02:09.741Z,14.00
2022-10-14T03:04:39.996Z,13.78
2022-10-14T03:07:08.022Z,13.60
2022-10-14T03:09:40.446Z,13.94
2022-10-14T03:12:08.448Z,13.90
2022-10-14T03:14:35.016Z,13.91
2022-10-14T03:17:03.455Z,13.88
2022-10-14T03:19:32.635Z,13.80
2022-10-14T03:21:59.290Z,13.59
2022-10-14T03:24:26.640Z,13.87
2022-10-14T03:27:32.247Z,13.85
2022-10-14T03:30:04.482Z,13.85
2022-10-14T03:32:32.620Z,13.82
2022-10-14T03:35:18.102Z,13.81
2022-10-14T03:37:47.458Z,13.76
2022-10-14T03:40:16.916Z,13.78
2022-10-14T03:42:43.706Z,13.75
2022-10-14T03:45:10.896Z,13.74
2022-10-14T03:47:39.469Z,13.73
2022-10-14T03:50:06.549Z,13.72
2022-10-14T03:52:47.899Z,13.68
2022-10-14T03:55:21.532Z,13.28
2022-10-14T03:57:50.308Z,13.31
2022-10-14T04:00:18.168Z,13.64
2022-10-14T04:02:49.499Z,13.62
2022-10-14T04:05:38.634Z,13.31
2022-10-14T04:08:11.421Z,13.61
2022-10-14T04:10:41.190Z,13.60
2022-10-14T04:13:11.257Z,13.53
2022-10-14T04:15:39.742Z,13.56
2022-10-14T04:18:33.092Z,13.56
2022-10-14T04:21:04.820Z,13.57
2022-10-14T04:23:31.804Z,13.59
2022-10-14T04:26:06.695Z,13.23
2022-10-14T04:28:33.523Z,13.61
2022-10-14T04:31:07.810Z,13.60
2022-10-14T04:33:46.879Z,13.63
2022-10-14T04:36:20.294Z,13.65
2022-10-14T04:38:46.887Z,13.69
2022-10-14T04:41:13.948Z,13.70
2022-10-14T04:43:46.182Z,13.35
2022-10-14T04:46:31.614Z,13.66
2022-10-14T04:48:58.629Z,13.71
2022-10-14T04:51:29.460Z,13.68
2022-10-14T04:54:23.547Z,13.71
2022-10-14T04:56:53.552Z,13.73
2022-10-14T04:59:20.165Z,13.75
2022-10-14T05:01:55.760Z,13.44
2022-10-14T05:04:28.790Z,13.73
2022-10-14T05:06:56.792Z,13.75
2022-10-14T05:09:24.310Z,13.40
2022-10-14T05:11:51.130Z,13.74
2022-10-14T05:14:22.619Z,13.78
2022-10-14T05:16:58.846Z,13.79
2022-10-14T05:19:29.463Z,13.75
2022-10-14T05:21:56.009Z,13.75
2022-10-14T05:24:31.890Z,13.80
2022-10-14T05:26:58.604Z,13.42
2022-10-14T05:29:27.599Z,13.80
2022-10-14T05:31:54.465Z,13.37
2022-10-14T05:34:35.780Z,13.74
2022-10-14T05:37:04.407Z,13.68
2022-10-14T05:39:38.635Z,13.68
2022-10-14T05:42:05.398Z,13.60
2022-10-14T05:44:32.042Z,13.58
2022-10-14T05:46:58.832Z,13.22
2022-10-14T05:49:26.450Z,13.58
2022-10-14T05:51:56.302Z,13.58
2022-10-14T05:54:24.195Z,13.60
2022-10-14T05:56:54.942Z,13.60
2022-10-14T05:59:23.497Z,13.58
2022-10-14T06:01:50.103Z,13.24
2022-10-14T06:04:19.721Z,13.27
2022-10-14T06:06:46.424Z,13.59
2022-10-14T06:09:14.781Z,13.58
2022-10-14T06:11:41.833Z,13.61
2022-10-14T06:14:08.441Z,13.70
2022-10-14T06:16:35.218Z,13.72
2022-10-14T06:19:05.235Z,13.34
2022-10-14T06:21:31.842Z,13.74
2022-10-14T06:23:58.398Z,13.78
2022-10-14T06:26:24.968Z,13.79
2022-10-14T06:28:51.573Z,13.49
2022-10-14T06:31:18.301Z,13.89
2022-10-14T06:33:45.022Z,13.87
2022-10-14T06:36:12.128Z,13.97
2022-10-14T06:38:38.721Z,13.98
2022-10-14T06:41:05.278Z,14.08
2022-10-14T06:43:31.847Z,14.12
2022-10-14T06:45:58.809Z,13.84
2022-10-14T06:48:25.362Z,14.28
2022-10-14T06:50:52.333Z,14.35
2022-10-14T06:53:18.991Z,14.40
2022-10-14T06:55:45.557Z,14.45
2022-10-14T06:58:12.324Z,14.57
2022-10-14T07:00:38.942Z,14.64
2022-10-14T07:03:05.582Z,14.74
2022-10-14T07:05:32.246Z,14.83
2022-10-14T07:07:58.867Z,14.82
2022-10-14T07:10:25.426Z,14.97
2022-10-14T07:12:55.682Z,14.94
2022-10-14T07:15:22.816Z,14.93
2022-10-14T07:17:49.432Z,14.98
2022-10-14T07:20:16.223Z,14.98
2022-10-14T07:22:42.863Z,15.11
2022-10-14T07:25:09.754Z,14.83
2022-10-14T07:27:36.557Z,15.12
2022-10-14T07:30:04.899Z,15.19
2022-10-14T07:32:31.717Z,15.23
2022-10-14T07:34:58.838Z,15.23
2022-10-14T07:37:25.543Z,14.99
2022-10-14T07:39:52.143Z,15.40
2022-10-14T07:42:21.741Z,15.38
2022-10-14T07:44:48.438Z,15.78
2022-10-14T07:47:14.993Z,15.71
2022-10-14T07:49:41.481Z,16.31
2022-10-14T07:52:08.016Z,16.48
2022-10-14T07:54:34.601Z,16.72
2022-10-14T07:57:01.214Z,16.93
2022-10-14T07:59:27.776Z,16.98
2022-10-14T08:01:56.574Z,17.59
2022-10-14T08:04:24.413Z,17.82
2022-10-14T08:06:51.598Z,17.94
2022-10-14T08:09:19.675Z,17.59
2022-10-14T08:11:47.010Z,17.88
2022-10-14T08:14:13.754Z,18.02
2022-10-14T08:16:40.472Z,18.15
2022-10-14T08:19:13.805Z,18.45
2022-10-14T08:21:42.729Z,18.44
2022-10-14T08:24:12.741Z,18.45
2022-10-14T08:26:41.206Z,18.55
2022-10-14T08:29:11.382Z,18.56
2022-10-14T08:31:38.305Z,18.25
2022-10-14T08:34:04.933Z,18.26
2022-10-14T08:36:32.096Z,18.65
2022-10-14T08:38:58.784Z,18.77
2022-10-14T08:41:41.987Z,18.96
2022-10-14T08:44:23.191Z,19.23
2022-10-14T08:46:56.600Z,19.48
2022-10-14T08:49:29.194Z,19.70
2022-10-14T08:52:03.777Z,19.53
2022-10-14T08:54:51.078Z,20.00
2022-10-14T08:57:23.403Z,20.03
2022-10-14T08:59:50.704Z,20.06
2022-10-14T09:02:29.581Z,20.09
2022-10-14T09:04:59.053Z,20.13
2022-10-14T09:07:25.774Z,20.13
2022-10-14T09:09:56.842Z,20.12
2022-10-14T09:12:33.255Z,20.23
2022-10-14T09:15:13.608Z,20.31
2022-10-14T09:17:48.303Z,20.42
2022-10-14T09:20:25.013Z,20.55
2022-10-14T09:23:18.748Z,20.62
2022-10-14T09:25:56.086Z,20.81
2022-10-14T09:28:28.902Z,20.77
2022-10-14T09:30:55.491Z,20.80
2022-10-14T09:33:28.471Z,20.86
2022-10-14T09:35:55.431Z,20.65
2022-10-14T09:38:22.056Z,21.04
2022-10-14T09:40:52.091Z,20.75
2022-10-14T09:43:20.938Z,21.13
2022-10-14T09:46:03.129Z,21.20
2022-10-14T09:48:40.025Z,21.33
2022-10-14T09:51:29.343Z,21.37
2022-10-14T09:53:58.340Z,21.50
2022-10-14T09:56:30.761Z,21.35
2022-10-14T09:58:58.131Z,21.32
2022-10-14T10:01:27.622Z,21.80
2022-10-14T10:03:55.749Z,21.86
2022-10-14T10:06:28.072Z,21.94
2022-10-14T10:08:55.230Z,21.98
2022-10-14T10:11:38.701Z,22.04
2022-10-14T10:14:23.220Z,22.07
2022-10-14T10:16:52.332Z,22.15
2022-10-14T10:19:32.459Z,22.12
2022-10-14T10:22:26.677Z,21.89
2022-10-14T10:25:08.535Z,21.87
2022-10-14T10:27:39.781Z,21.87
2022-10-14T10:30:18.807Z,21.86
2022-10-14T10:32:45.337Z,21.81
2022-10-14T10:35:30.660Z,21.76
2022-10-14T10:38:07.775Z,21.75
2022-10-14T10:40:36.592Z,21.77
2022-10-14T10:43:40.207Z,21.69
2022-10-14T10:46:20.392Z,21.56
2022-10-14T10:49:18.754Z,21.52
2022-10-14T10:52:09.092Z,21.55
2022-10-14T10:54:56.048Z,21.37
2022-10-14T10:57:30.139Z,21.23
2022-10-14T11:00:02.578Z,20.80
2022-10-14T11:02:38.805Z,21.19
2022-10-14T11:05:34.671Z,21.21
2022-10-14T11:08:27.061Z,21.09
2022-10-14T11:11:18.458Z,21.08
2022-10-14T11:13:57.166Z,21.06
2022-10-14T11:16:33.577Z,21.03
2022-10-14T11:19:26.900Z,20.99
2022-10-14T11:22:06.950Z,20.97
2022-10-14T11:24:58.486Z,20.96
2022-10-14T11:27:33.314Z,21.02
2022-10-14T11:30:02.912Z,21.10
2022-10-14T11:32:50.782Z,21.11
2022-10-14T11:35:20.289Z,21.13
2022-10-14T11:37:49.800Z,21.14
2022-10-14T11:40:36.080Z,21.08
2022-10-14T11:43:19.364Z,21.04
2022-10-14T11:45:54.021Z,20.96
2022-10-14T11:48:23.962Z,20.59
2022-10-14T11:50:57.108Z,20.45
2022-10-14T11:53:42.053Z,20.70
2022-10-14T11:56:45.956Z,20.65
2022-10-14T11:59:31.308Z,20.55
2022-10-14T12:02:11.012Z,20.47
2022-10-14T12:04:43.748Z,20.49
2022-10-14T12:07:18.487Z,20.39
2022-10-14T12:09:55.916Z,20.33
2022-10-14T12:12:28.445Z,19.98
2022-10-14T12:14:59.121Z,20.24
2022-10-14T12:17:38.780Z,20.15
2022-10-14T12:20:19.761Z,20.07
2022-10-14T12:22:49.696Z,20.07
2022-10-14T12:25:20.967Z,19.99
2022-10-14T12:27:49.052Z,19.55
2022-10-14T12:30:42.582Z,19.86
2022-10-14T12:33:12.020Z,19.77
2022-10-14T12:35:47.037Z,19.70
2022-10-14T12:38:18.407Z,19.66
2022-10-14T12:40:45.150Z,19.63
2022-10-14T12:43:23.622Z,19.59
2022-10-14T12:46:01.733Z,19.60
2022-10-14T12:48:35.766Z,19.35
2022-10-14T12:51:10.614Z,19.61
2022-10-14T12:53:39.979Z,19.63
2022-10-14T12:56:07.577Z,19.74
2022-10-14T12:58:57.419Z,19.52
2022-10-14T13:01:24.178Z,19.78
2022-10-14T13:03:57.051Z,19.62
2022-10-14T13:06:35.580Z,19.84
2022-10-14T13:09:16.977Z,19.75
2022-10-14T13:11:53.597Z,19.72
2022-10-14T13:14:29.945Z,19.37
2022-10-14T13:17:00.938Z,19.30
2022-10-14T13:19:33.216Z,19.60
2022-10-14T13:22:05.194Z,19.23
2022-10-14T13:24:35.300Z,19.46
2022-10-14T13:27:33.757Z,19.37
2022-10-14T13:30:17.079Z,19.22
2022-10-14T13:32:55.694Z,19.07
2022-10-14T13:35:47.688Z,18.89
2022-10-14T13:38:19.703Z,18.69
2022-10-14T13:41:10.221Z,18.49
2022-10-14T13:43:45.025Z,18.41
2022-10-14T13:46:33.834Z,18.36
2022-10-14T13:49:08.389Z,18.30
2022-10-14T13:51:46.010Z,18.20
2022-10-14T13:54:19.267Z,17.80
2022-10-14T13:57:42.762Z,18.02
2022-10-14T14:00:39.548Z,17.57
2022-10-14T14:02:44.859Z,17.68
2022-10-14T14:05:20.543Z,17.57
2022-10-14T14:08:30.566Z,17.19
2022-10-14T14:10:39.328Z,17.03
2022-10-14T14:13:13.228Z,17.24
2022-10-14T14:15:40.501Z,16.73
2022-10-14T14:18:30.438Z,16.68
2022-10-14T14:21:04.899Z,16.90
2022-10-14T14:23:31.375Z,16.86
2022-10-14T14:26:18.272Z,16.84
2022-10-14T14:28:48.047Z,16.85
2022-10-14T14:31:18.181Z,16.82
2022-10-14T14:33:46.463Z,16.86
2022-10-14T14:36:27.609Z,16.61
2022-10-14T14:39:02.026Z,16.85
2022-10-14T14:41:30.505Z,16.85
2022-10-14T14:44:25.585Z,16.85
2022-10-14T14:46:54.971Z,16.86
2022-10-14T14:49:28.031Z,16.89
2022-10-14T14:51:55.738Z,16.93
2022-10-14T14:54:23.452Z,16.95
2022-10-14T14:57:00.952Z,16.94
2022-10-14T14:59:43.733Z,16.60
2022-10-14T15:02:22.921Z,16.64
2022-10-14T15:05:05.069Z,16.96
2022-10-14T15:11:31.865Z,16.90
2022-10-14T15:14:00.103Z,16.96
2022-10-14T15:16:42.147Z,17.03
2022-10-14T15:19:26.431Z,17.12
2022-10-14T15:22:23.907Z,17.13
2022-10-14T15:25:24.184Z,17.07
2022-10-14T15:27:54.990Z,16.60
2022-10-14T15:30:39.674Z,16.84
2022-10-14T15:33:18.630Z,16.75
2022-10-14T15:35:57.003Z,16.72
2022-10-14T15:38:25.078Z,16.77
2022-10-14T15:40:52.076Z,16.70
2022-10-14T15:43:26.290Z,16.72
2022-10-14T15:46:16.222Z,16.70
2022-10-14T15:48:55.009Z,16.66
2022-10-14T15:51:26.194Z,16.71
2022-10-14T15:53:52.759Z,16.70
2022-10-14T15:56:21.138Z,16.70
2022-10-14T15:58:48.343Z,16.69
2022-10-14T16:01:21.281Z,16.38
2022-10-14T16:03:49.412Z,16.64
2022-10-14T16:06:17.116Z,16.64
2022-10-14T16:08:43.981Z,16.28
2022-10-14T16:11:26.383Z,16.29
2022-10-14T16:13:53.207Z,16.52
2022-10-14T16:16:34.269Z,16.30
2022-10-14T16:19:04.228Z,16.52
2022-10-14T16:21:31.281Z,16.49
2022-10-14T16:24:01.070Z,16.39
2022-10-14T16:26:27.847Z,16.42
2022-10-14T16:28:54.535Z,16.08
2022-10-14T16:31:21.487Z,16.34
2022-10-14T16:33:54.795Z,16.14
2022-10-14T16:36:23.310Z,15.95
2022-10-14T16:38:50.982Z,15.97
2022-10-14T16:41:17.507Z,15.94
2022-10-14T16:43:44.059Z,16.27
2022-10-14T16:46:13.225Z,16.23
2022-10-14T16:48:41.354Z,15.89
2022-10-14T16:51:08.094Z,16.25
2022-10-14T16:53:40.380Z,16.22
2022-10-14T16:56:35.099Z,16.20
2022-10-14T16:59:02.734Z,16.17
2022-10-14T17:01:29.924Z,16.03
2022-10-14T17:03:57.719Z,16.13
2022-10-14T17:06:25.150Z,15.78
2022-10-14T17:08:52.078Z,16.05
2022-10-14T17:11:18.895Z,16.05
2022-10-14T17:13:45.651Z,16.09
2022-10-14T17:16:12.513Z,16.07
2022-10-14T17:18:41.111Z,16.03
2022-10-14T17:21:12.362Z,16.06
2022-10-14T17:23:42.086Z,16.05
2022-10-14T17:26:12.026Z,16.05
2022-10-14T17:28:40.405Z,15.97
2022-10-14T17:31:10.121Z,16.07
2022-10-14T17:33:37.678Z,15.79
2022-10-14T17:36:06.384Z,16.06
2022-10-14T17:38:34.623Z,15.79
2022-10-14T17:41:03.557Z,16.03
2022-10-14T17:43:31.031Z,16.03
2022-10-14T17:46:12.689Z,15.75
2022-10-14T17:48:44.107Z,16.03
2022-10-14T17:51:11.794Z,15.76
2022-10-14T17:53:40.045Z,15.98
2022-10-14T17:56:12.217Z,15.62
2022-10-14T17:58:39.519Z,15.65
2022-10-14T18:01:11.984Z,15.93
2022-10-14T18:03:41.939Z,15.97
2022-10-14T18:06:23.595Z,15.94
2022-10-14T18:08:52.797Z,15.96
2022-10-14T18:11:21.309Z,15.94
2022-10-14T18:13:55.783Z,15.95
2022-10-14T18:16:25.050Z,15.94
2022-10-14T18:18:53.085Z,15.94
2022-10-14T18:21:20.643Z,15.94
2022-10-14T18:23:47.528Z,15.96
2022-10-14T18:26:16.940Z,15.99
2022-10-14T18:28:49.068Z,15.98
2022-10-14T18:31:18.605Z,16.00
2022-10-14T18:33:45.937Z,16.01
2022-10-14T18:36:15.486Z,15.66
2022-10-14T18:38:42.159Z,16.02
2022-10-14T18:41:12.258Z,16.03
2022-10-14T18:43:39.107Z,15.99
2022-10-14T18:46:17.571Z,16.00
2022-10-14T18:48:49.788Z,16.00
2022-10-14T18:51:19.019Z,15.96
2022-10-14T18:53:48.110Z,15.99
2022-10-14T18:56:19.498Z,15.96
2022-10-14T18:58:54.133Z,15.97
2022-10-14T19:01:21.187Z,15.96
2022-10-14T19:03:47.782Z,15.96
2022-10-14T19:06:14.609Z,15.94
2022-10-14T19:08:42.382Z,15.95
2022-10-14T19:11:19.644Z,15.94
2022-10-14T19:13:48.293Z,15.95
2022-10-14T19:16:36.634Z,15.95
2022-10-14T19:19:16.745Z,15.95
2022-10-14T19:21:44.896Z,15.95
2022-10-14T19:24:12.779Z,16.03
2022-10-14T19:26:43.821Z,16.07
2022-10-14T19:29:12.994Z,16.28
2022-10-14T19:31:40.279Z,16.24
2022-10-14T19:34:08.828Z,16.19
2022-10-14T19:36:38.925Z,16.14
2022-10-14T19:39:08.185Z,16.12
2022-10-14T19:41:42.672Z,16.09
2022-10-14T19:44:09.448Z,16.06
2022-10-14T19:46:44.860Z,16.06
2022-10-14T19:49:15.168Z,16.05
2022-10-14T19:51:42.173Z,15.94
2022-10-14T19:54:10.697Z,16.07
2022-10-14T19:56:37.208Z,16.04
2022-10-14T19:59:03.820Z,15.99
2022-10-14T20:01:33.762Z,16.04
2022-10-14T20:04:02.010Z,16.03
2022-10-14T20:06:32.783Z,15.94
2022-10-14T20:08:59.675Z,15.81
2022-10-14T20:11:26.457Z,15.93
2022-10-14T20:13:52.954Z,16.01
2022-10-14T20:16:19.701Z,15.85
2022-10-14T20:18:46.245Z,15.81
2022-10-14T20:21:14.459Z,15.91
2022-10-14T20:23:41.505Z,15.81
2022-10-14T20:26:12.416Z,15.89
2022-10-14T20:28:39.845Z,15.88
2022-10-14T20:31:11.644Z,15.88
2022-10-14T20:33:38.265Z,15.79
2022-10-14T20:36:07.758Z,15.86
2022-10-14T20:38:34.349Z,15.82
2022-10-14T20:41:08.605Z,15.86
2022-10-14T20:43:35.365Z,15.66
2022-10-14T20:46:02.113Z,15.82
2022-10-14T20:48:28.594Z,15.83
2022-10-14T20:50:55.159Z,15.83
2022-10-14T20:53:21.986Z,15.72
2022-10-14T20:55:48.549Z,15.78
2022-10-14T20:58:15.245Z,15.75
2022-10-14T21:00:41.792Z,15.74
2022-10-14T21:03:08.582Z,15.70
2022-10-14T21:05:38.202Z,15.53
2022-10-14T21:08:05.108Z,15.64
2022-10-14T21:10:33.641Z,15.56
2022-10-14T21:13:00.264Z,15.67
2022-10-14T21:15:31.666Z,15.67
2022-10-14T21:17:58.202Z,15.66
2022-10-14T21:20:24.741Z,15.50
2022-10-14T21:22:51.281Z,15.63
2022-10-14T21:25:17.845Z,15.61
2022-10-14T21:27:44.339Z,15.51
2022-10-14T21:30:11.521Z,15.61
2022-10-14T21:32:38.070Z,14.86
2022-10-14T21:35:11.978Z,15.45
2022-10-14T21:37:38.569Z,15.54
2022-10-14T21:40:05.710Z,15.54
2022-10-14T21:42:35.388Z,15.51
2022-10-14T21:45:03.101Z,15.53
2022-10-14T21:47:29.615Z,15.46
2022-10-14T21:49:56.242Z,15.45
2022-10-14T21:52:29.777Z,15.46
2022-10-14T21:54:56.172Z,15.36
2022-10-14T21:57:25.952Z,15.26
2022-10-14T21:59:55.482Z,15.28
2022-10-14T22:02:24.439Z,15.25
2022-10-14T22:04:50.912Z,15.16
2022-10-14T22:07:17.400Z,14.98
2022-10-14T22:09:43.921Z,15.15
2022-10-14T22:12:14.771Z,15.13
2022-10-14T22:14:41.334Z,15.11
2022-10-14T22:17:07.913Z,14.98
2022-10-14T22:19:34.453Z,14.97
2022-10-14T22:22:01.410Z,15.03
2022-10-14T22:24:28.229Z,14.89
2022-10-14T22:26:54.765Z,14.94
2022-10-14T22:29:21.444Z,14.43
2022-10-14T22:31:48.030Z,14.80
2022-10-14T22:34:16.833Z,14.79
2022-10-14T22:36:43.937Z,14.87
2022-10-14T22:39:16.080Z,14.86
2022-10-14T22:41:42.629Z,14.84
2022-10-14T22:44:10.247Z,14.82
2022-10-14T22:46:38.554Z,14.81
2022-10-14T22:49:05.481Z,14.78
2022-10-14T22:51:40.189Z,14.76
2022-10-14T22:54:06.969Z,14.76
2022-10-14T22:56:33.765Z,14.71
2022-10-14T22:59:06.629Z,14.77
2022-10-14T23:01:34.154Z,14.73
2022-10-14T23:04:01.256Z,14.75
2022-10-14T23:06:29.027Z,14.65
2022-10-14T23:08:56.264Z,14.71
2022-10-14T23:11:24.638Z,14.69
2022-10-14T23:13:51.573Z,14.72
2022-10-14T23:16:20.933Z,14.73
2022-10-14T23:18:48.495Z,14.72
2022-10-14T23:21:20.957Z,14.67
2022-10-14T23:23:48.720Z,14.71
2022-10-14T23:26:21.498Z,14.64
2022-10-14T23:28:53.659Z,14.64
2022-10-14T23:31:23.507Z,14.71
2022-10-14T23:33:52.280Z,14.68
2022-10-14T23:36:20.805Z,14.78
2022-10-14T23:38:48.004Z,14.71
2022-10-14T23:41:15.082Z,14.69
2022-10-14T23:43:42.012Z,14.71
2022-10-14T23:46:08.762Z,14.66
2022-10-14T23:48:36.201Z,14.59
2022-10-14T23:51:03.515Z,14.57
2022-10-14T23:53:30.441Z,14.65
2022-10-14T23:55:57.416Z,14.61
2022-10-14T23:58:25.585Z,14.56
